createdAt,value
2022-09-06T00:02:43.997Z,45.43
2022-09-06T00:07:45.563Z,46.55
2022-09-06T00:12:47.756Z,45.99
2022-09-06T00:17:49.291Z,45.72
2022-09-06T00:22:50.803Z,45.50
2022-09-06T00:27:56.554Z,46.19
2022-09-06T00:32:58.444Z,46.53
2022-09-06T00:38:00.625Z,45.04
2022-09-06T00:43:02.150Z,45.57
2022-09-06T00:48:03.671Z,45.60
2022-09-06T00:53:05.180Z,45.73
2022-09-06T00:58:06.685Z,46.27
2022-09-06T01:03:08.213Z,46.10
2022-09-06T01:08:47.455Z,45.91
2022-09-06T01:13:55.902Z,45.92
2022-09-06T01:19:04.150Z,46.33
2022-09-06T01:24:42.683Z,46.46
2022-09-06T01:29:51.712Z,47.20
2022-09-06T01:35:17.928Z,48.04
2022-09-06T01:40:19.437Z,48.30
2022-09-06T01:45:23.545Z,46.81
2022-09-06T01:50:41.955Z,46.55
2022-09-06T01:56:05.185Z,47.35
2022-09-06T02:01:16.522Z,47.36
2022-09-06T02:06:27.088Z,47.68
2022-09-06T02:11:28.607Z,48.08
2022-09-06T02:16:30.886Z,47.69
2022-09-06T02:21:34.780Z,47.00
2022-09-06T02:26:38.027Z,47.18
2022-09-06T02:31:47.151Z,48.97
2022-09-06T02:36:48.685Z,48.60
2022-09-06T02:41:50.219Z,47.53
2022-09-06T02:46:56.361Z,48.09
2022-09-06T02:51:58.626Z,47.24
2022-09-06T02:57:00.151Z,48.86
2022-09-06T03:02:01.691Z,47.02
2022-09-06T03:07:03.250Z,47.11
2022-09-06T03:12:04.865Z,48.51
2022-09-06T03:17:06.409Z,47.54
2022-09-06T03:22:07.928Z,47.23
2022-09-06T03:27:09.447Z,48.20
2022-09-06T03:32:10.972Z,47.97
2022-09-06T03:37:12.483Z,48.27
2022-09-06T03:42:13.985Z,48.33
2022-09-06T03:47:19.309Z,47.65
2022-09-06T03:52:21.201Z,48.02
2022-09-06T03:57:22.713Z,48.90
2022-09-06T04:02:24.370Z,49.22
2022-09-06T04:07:25.922Z,49.01
2022-09-06T04:12:28.868Z,48.54
2022-09-06T04:17:30.372Z,49.80
2022-09-06T04:22:31.925Z,48.87
2022-09-06T04:27:33.459Z,48.96
2022-09-06T04:32:34.977Z,48.69
2022-09-06T04:37:36.491Z,49.77
2022-09-06T04:42:38.022Z,49.93
2022-09-06T04:47:39.532Z,48.32
2022-09-06T04:52:41.057Z,47.58
2022-09-06T04:57:46.576Z,48.73
2022-09-06T05:02:50.015Z,48.32
2022-09-06T05:07:52.943Z,47.94
2022-09-06T05:12:54.531Z,47.18
2022-09-06T05:18:04.028Z,48.05
2022-09-06T05:23:05.579Z,48.76
2022-09-06T05:28:07.119Z,47.47
2022-09-06T05:33:12.608Z,47.44
2022-09-06T05:38:14.192Z,48.06
2022-09-06T05:43:15.703Z,48.44
2022-09-06T05:48:17.227Z,48.01
2022-09-06T05:53:18.780Z,47.68
2022-09-06T05:58:20.294Z,49.27
2022-09-06T06:03:21.802Z,46.94
2022-09-06T06:08:23.392Z,47.31
2022-09-06T06:13:24.934Z,48.44
2022-09-06T06:18:26.461Z,47.29
2022-09-06T06:23:28.010Z,46.24
2022-09-06T06:28:29.547Z,48.33
2022-09-06T06:33:31.167Z,46.78
2022-09-06T06:38:37.647Z,47.77
2022-09-06T06:43:39.362Z,47.53
2022-09-06T06:48:41.389Z,47.12
2022-09-06T06:53:43.742Z,46.87
2022-09-06T06:58:45.572Z,48.02
2022-09-06T07:03:47.094Z,48.02
2022-09-06T07:08:48.810Z,47.11
2022-09-06T07:13:50.332Z,46.68
2022-09-06T07:18:52.549Z,47.02
2022-09-06T07:24:10.060Z,46.40
2022-09-06T07:29:12.022Z,44.93
2022-09-06T07:34:14.483Z,45.10
2022-09-06T07:39:16.018Z,45.52
2022-09-06T07:44:17.510Z,45.65
2022-09-06T07:49:19.025Z,45.20
2022-09-06T07:54:35.869Z,44.92
2022-09-06T07:59:40.059Z,46.80
2022-09-06T08:04:47.578Z,46.65
2022-09-06T08:09:51.666Z,46.69
2022-09-06T08:14:53.195Z,46.56
2022-09-06T08:19:54.951Z,48.66
2022-09-06T08:24:56.458Z,50.06
2022-09-06T08:29:57.969Z,49.21
2022-09-06T08:34:59.498Z,51.41
2022-09-06T08:40:01.057Z,50.79
2022-09-06T08:45:04.638Z,51.57
2022-09-06T08:50:06.993Z,51.08
2022-09-06T08:55:40.652Z,50.14
2022-09-06T09:00:42.471Z,50.15
2022-09-06T09:05:44.001Z,49.88
2022-09-06T09:10:48.110Z,51.00
2022-09-06T09:15:49.712Z,50.96
2022-09-06T09:20:51.574Z,51.51
2022-09-06T09:25:53.129Z,52.60
2022-09-06T09:30:56.025Z,52.74
2022-09-06T09:36:02.166Z,52.83
2022-09-06T09:41:05.420Z,53.06
2022-09-06T09:46:13.217Z,52.46
2022-09-06T09:51:27.615Z,52.45
2022-09-06T09:56:52.908Z,53.43
2022-09-06T10:02:01.079Z,54.10
2022-09-06T10:07:16.160Z,53.27
2022-09-06T10:12:19.256Z,52.67
2022-09-06T10:17:28.112Z,54.13
2022-09-06T10:22:36.842Z,52.73
2022-09-06T10:28:10.527Z,52.38
2022-09-06T10:33:35.062Z,51.71
2022-09-06T10:38:42.277Z,51.64
2022-09-06T10:44:08.431Z,50.80
2022-09-06T10:49:11.821Z,51.55
2022-09-06T10:54:13.892Z,50.59
2022-09-06T11:10:15.012Z,48.84
2022-09-06T11:15:17.134Z,49.82
2022-09-06T11:20:27.401Z,48.43
2022-09-06T11:25:39.254Z,49.06
2022-09-06T11:30:47.127Z,46.83
2022-09-06T11:35:48.757Z,46.88
2022-09-06T11:41:01.100Z,48.00
2022-09-06T11:46:02.696Z,48.27
2022-09-06T11:51:06.853Z,48.11
2022-09-06T11:56:08.641Z,49.08
2022-09-06T12:01:12.979Z,48.74
2022-09-06T12:06:21.118Z,46.50
2022-09-06T12:11:41.698Z,46.95
2022-09-06T12:16:58.414Z,47.30
2022-09-06T12:22:00.015Z,47.04
2022-09-06T12:27:19.685Z,47.98
2022-09-06T12:32:31.635Z,47.32
2022-09-06T12:37:39.313Z,47.40
2022-09-06T12:42:40.880Z,48.63
2022-09-06T12:47:42.472Z,47.83
2022-09-06T12:52:44.703Z,47.94
2022-09-06T12:57:53.892Z,49.23
2022-09-06T13:03:06.869Z,48.31
2022-09-06T13:08:15.363Z,48.58
2022-09-06T13:13:22.246Z,47.90
2022-09-06T13:18:35.433Z,47.94
2022-09-06T13:23:47.727Z,47.66
2022-09-06T13:28:49.315Z,45.95
2022-09-06T13:34:00.199Z,46.40
2022-09-06T13:39:03.822Z,45.25
2022-09-06T13:44:15.122Z,45.40
2022-09-06T13:49:16.769Z,45.27
2022-09-06T13:54:18.374Z,44.37
2022-09-06T13:59:20.117Z,44.58
2022-09-06T14:04:21.672Z,43.62
2022-09-06T14:09:23.355Z,44.77
2022-09-06T14:14:24.950Z,43.88
2022-09-06T14:19:26.725Z,45.39
2022-09-06T14:24:28.181Z,44.25
2022-09-06T14:29:29.665Z,44.23
2022-09-06T14:34:31.671Z,44.67
2022-09-06T14:39:33.328Z,44.21
2022-09-06T14:44:34.979Z,44.98
2022-09-06T14:49:36.553Z,44.54
2022-09-06T14:54:38.224Z,43.72
2022-09-06T14:59:40.013Z,45.04
2022-09-06T15:04:41.886Z,44.38
2022-09-06T15:09:43.467Z,44.75
2022-09-06T15:14:45.109Z,44.55
2022-09-06T15:19:46.737Z,44.65
2022-09-06T15:24:50.298Z,44.62
2022-09-06T15:29:51.805Z,45.13
2022-09-06T15:34:53.466Z,46.00
2022-09-06T15:39:55.072Z,44.67
2022-09-06T15:44:56.851Z,44.80
2022-09-06T15:49:58.383Z,45.39
2022-09-06T15:55:18.210Z,44.86
2022-09-06T16:00:22.010Z,43.86
2022-09-06T16:10:45.928Z,45.07
2022-09-06T16:16:00.080Z,45.58
2022-09-06T16:21:07.309Z,45.63
2022-09-06T16:26:09.407Z,46.08
2022-09-06T16:31:11.019Z,46.24
2022-09-06T16:36:12.948Z,45.80
2022-09-06T16:41:18.518Z,46.78
2022-09-06T16:46:23.789Z,46.53
2022-09-06T16:51:25.519Z,46.61
2022-09-06T16:56:28.544Z,46.46
2022-09-06T17:01:31.267Z,45.63
2022-09-06T17:06:34.128Z,45.47
2022-09-06T17:11:37.734Z,45.73
2022-09-06T17:16:57.798Z,44.95
2022-09-06T17:21:59.415Z,45.39
2022-09-06T17:27:00.969Z,45.84
2022-09-06T17:32:04.592Z,45.45
2022-09-06T17:37:06.354Z,45.23
2022-09-06T17:42:08.630Z,46.15
2022-09-06T17:47:14.077Z,46.61
2022-09-06T17:52:15.980Z,46.84
2022-09-06T17:57:17.525Z,46.71
2022-09-06T18:02:19.039Z,46.37
2022-09-06T18:07:20.577Z,46.22
2022-09-06T18:12:22.516Z,46.01
2022-09-06T18:17:24.154Z,47.17
2022-09-06T18:22:25.724Z,45.93
2022-09-06T18:27:28.183Z,45.84
2022-09-06T18:32:29.849Z,45.88
2022-09-06T18:37:31.367Z,45.85
2022-09-06T18:42:33.085Z,45.75
2022-09-06T18:47:34.630Z,46.12
2022-09-06T18:52:38.349Z,46.23
2022-09-06T18:57:39.862Z,45.97
2022-09-06T19:02:41.512Z,45.74
2022-09-06T19:07:43.063Z,46.02
2022-09-06T19:12:44.611Z,46.25
2022-09-06T19:17:48.624Z,46.87
2022-09-06T19:22:50.734Z,45.81
2022-09-06T19:27:52.309Z,46.28
2022-09-06T19:32:53.833Z,47.56
2022-09-06T19:37:55.376Z,46.91
2022-09-06T19:42:57.183Z,47.05
2022-09-06T19:47:58.753Z,46.59
2022-09-06T19:53:04.155Z,46.89
2022-09-06T19:58:08.502Z,46.44
2022-09-06T20:03:10.102Z,46.78
2022-09-06T20:08:11.709Z,47.14
2022-09-06T20:13:13.227Z,46.78
2022-09-06T20:18:15.679Z,46.99
2022-09-06T20:23:17.184Z,47.19
2022-09-06T20:28:18.708Z,47.04
2022-09-06T20:33:20.266Z,47.04
2022-09-06T20:38:22.881Z,47.20
2022-09-06T20:43:24.461Z,47.03
2022-09-06T20:48:26.705Z,46.91
2022-09-06T20:53:31.742Z,47.60
2022-09-06T20:58:33.459Z,46.98
2022-09-06T21:03:37.034Z,48.17
2022-09-06T21:08:42.548Z,47.80
2022-09-06T21:13:51.245Z,47.42
2022-09-06T21:18:53.418Z,48.03
2022-09-06T21:23:55.360Z,47.83
2022-09-06T21:28:56.942Z,47.52
2022-09-06T21:34:01.021Z,47.11
2022-09-06T21:39:09.888Z,47.13
2022-09-06T21:44:12.128Z,47.92
2022-09-06T21:49:13.790Z,48.65
2022-09-06T21:54:15.330Z,48.41
2022-09-06T21:59:16.962Z,48.62
2022-09-06T22:04:19.518Z,48.47
2022-09-06T22:09:21.966Z,49.08
2022-09-06T22:14:23.598Z,48.34
2022-09-06T22:19:25.243Z,48.38
2022-09-06T22:24:27.025Z,48.58
2022-09-06T22:29:28.677Z,48.97
2022-09-06T22:34:30.267Z,48.78
2022-09-06T22:39:31.977Z,48.56
2022-09-06T22:44:33.587Z,47.56
2022-09-06T22:49:35.284Z,47.90
2022-09-06T22:54:38.063Z,47.88
2022-09-06T22:59:39.810Z,47.87
2022-09-06T23:04:41.418Z,48.20
2022-09-06T23:09:43.015Z,48.28
2022-09-06T23:14:44.802Z,47.83
2022-09-06T23:19:46.427Z,48.20
2022-09-06T23:24:48.023Z,49.19
2022-09-06T23:29:49.597Z,48.71
2022-09-06T23:34:51.269Z,48.51
2022-09-06T23:39:52.902Z,48.17
2022-09-06T23:44:57.607Z,47.46
2022-09-06T23:49:59.185Z,48.31
2022-09-06T23:55:00.742Z,48.13
